sensor_id;sensor_type;location;lat;lon;timestamp;temperature;humidity
22968;DHT22;11650;48.106;-1.696;2023-04-24T00:01:43;10.40;99.90
22968;DHT22;11650;48.106;-1.696;2023-04-24T00:04:09;10.30;99.90
22968;DHT22;11650;48.106;-1.696;2023-04-24T00:06:37;10.40;99.90
22968;DHT22;11650;48.106;-1.696;2023-04-24T00:09:03;10.30;99.90
22968;DHT22;11650;48.106;-1.696;2023-04-24T00:11:29;10.30;99.90
22968;DHT22;11650;48.106;-1.696;2023-04-24T00:13:56;10.30;99.90
22968;DHT22;11650;48.106;-1.696;2023-04-24T00:16:22;10.30;99.90
22968;DHT22;11650;48.106;-1.696;2023-04-24T00:18:48;10.20;99.90
22968;DHT22;11650;48.106;-1.696;2023-04-24T00:21:15;10.20;99.90
22968;DHT22;11650;48.106;-1.696;2023-04-24T00:23:43;10.10;99.90
22968;DHT22;11650;48.106;-1.696;2023-04-24T00:26:09;10.20;99.90
22968;DHT22;11650;48.106;-1.696;2023-04-24T00:28:34;10.10;99.90
22968;DHT22;11650;48.106;-1.696;2023-04-24T00:31:00;10.10;99.90
22968;DHT22;11650;48.106;-1.696;2023-04-24T00:33:26;10.10;99.90
22968;DHT22;11650;48.106;-1.696;2023-04-24T00:35:51;10.00;99.90
22968;DHT22;11650;48.106;-1.696;2023-04-24T00:38:17;10.00;99.90
22968;DHT22;11650;48.106;-1.696;2023-04-24T00:40:43;10.00;99.90
22968;DHT22;11650;48.106;-1.696;2023-04-24T00:43:09;9.90;99.90
22968;DHT22;11650;48.106;-1.696;2023-04-24T00:45:35;9.90;99.90
22968;DHT22;11650;48.106;-1.696;2023-04-24T00:48:01;9.90;99.90
22968;DHT22;11650;48.106;-1.696;2023-04-24T00:50:28;9.90;99.90
22968;DHT22;11650;48.106;-1.696;2023-04-24T00:52:54;9.90;99.90
22968;DHT22;11650;48.106;-1.696;2023-04-24T00:55:20;9.90;99.90
22968;DHT22;11650;48.106;-1.696;2023-04-24T00:57:47;9.90;99.90
22968;DHT22;11650;48.106;-1.696;2023-04-24T01:00:14;9.90;99.90
22968;DHT22;11650;48.106;-1.696;2023-04-24T01:02:45;9.90;99.90
22968;DHT22;11650;48.106;-1.696;2023-04-24T01:05:12;9.90;99.90
22968;DHT22;11650;48.106;-1.696;2023-04-24T01:07:39;9.90;99.90
22968;DHT22;11650;48.106;-1.696;2023-04-24T01:10:07;9.90;99.90
22968;DHT22;11650;48.106;-1.696;2023-04-24T01:12:33;9.90;99.90
22968;DHT22;11650;48.106;-1.696;2023-04-24T01:14:59;9.80;99.90
22968;DHT22;11650;48.106;-1.696;2023-04-24T01:17:25;9.80;99.90
22968;DHT22;11650;48.106;-1.696;2023-04-24T01:19:51;9.80;99.90
22968;DHT22;11650;48.106;-1.696;2023-04-24T01:22:19;9.90;99.90
22968;DHT22;11650;48.106;-1.696;2023-04-24T01:24:46;9.90;99.90
22968;DHT22;11650;48.106;-1.696;2023-04-24T01:27:12;9.80;99.90
22968;DHT22;11650;48.106;-1.696;2023-04-24T01:29:38;9.80;99.90
22968;DHT22;11650;48.106;-1.696;2023-04-24T01:32:05;9.90;99.90
22968;DHT22;11650;48.106;-1.696;2023-04-24T01:34:31;9.90;99.90
22968;DHT22;11650;48.106;-1.696;2023-04-24T01:36:57;9.90;99.90
22968;DHT22;11650;48.106;-1.696;2023-04-24T01:39:23;9.90;99.90
22968;DHT22;11650;48.106;-1.696;2023-04-24T01:41:51;9.90;99.90
22968;DHT22;11650;48.106;-1.696;2023-04-24T01:44:18;9.80;99.90
22968;DHT22;11650;48.106;-1.696;2023-04-24T01:46:44;9.80;99.90
22968;DHT22;11650;48.106;-1.696;2023-04-24T01:49:10;9.80;99.90
22968;DHT22;11650;48.106;-1.696;2023-04-24T01:51:36;9.80;99.90
22968;DHT22;11650;48.106;-1.696;2023-04-24T01:54:02;9.80;99.90
22968;DHT22;11650;48.106;-1.696;2023-04-24T01:56:33;9.70;99.90
22968;DHT22;11650;48.106;-1.696;2023-04-24T01:59:00;9.70;99.90
22968;DHT22;11650;48.106;-1.696;2023-04-24T02:01:33;9.70;99.90
22968;DHT22;11650;48.106;-1.696;2023-04-24T02:04:00;9.80;99.90
22968;DHT22;11650;48.106;-1.696;2023-04-24T02:06:26;9.70;99.90
22968;DHT22;11650;48.106;-1.696;2023-04-24T02:08:51;9.70;99.90
22968;DHT22;11650;48.106;-1.696;2023-04-24T02:11:17;9.70;99.90
22968;DHT22;11650;48.106;-1.696;2023-04-24T02:13:44;9.70;99.90
22968;DHT22;11650;48.106;-1.696;2023-04-24T02:16:10;9.60;99.90
22968;DHT22;11650;48.106;-1.696;2023-04-24T02:18:35;9.60;99.90
22968;DHT22;11650;48.106;-1.696;2023-04-24T02:21:01;9.60;99.90
22968;DHT22;11650;48.106;-1.696;2023-04-24T02:23:27;9.60;99.90
22968;DHT22;11650;48.106;-1.696;2023-04-24T02:25:53;9.60;99.90
22968;DHT22;11650;48.106;-1.696;2023-04-24T02:28:19;9.50;99.90
22968;DHT22;11650;48.106;-1.696;2023-04-24T02:30:45;9.50;99.90
22968;DHT22;11650;48.106;-1.696;2023-04-24T02:33:11;9.60;99.90
22968;DHT22;11650;48.106;-1.696;2023-04-24T02:35:37;9.60;99.90
22968;DHT22;11650;48.106;-1.696;2023-04-24T02:38:03;9.60;99.90
22968;DHT22;11650;48.106;-1.696;2023-04-24T02:40:29;9.60;99.90
22968;DHT22;11650;48.106;-1.696;2023-04-24T02:42:54;9.60;99.90
22968;DHT22;11650;48.106;-1.696;2023-04-24T02:45:20;9.50;99.90
22968;DHT22;11650;48.106;-1.696;2023-04-24T02:47:46;9.50;99.90
22968;DHT22;11650;48.106;-1.696;2023-04-24T02:50:11;9.60;99.90
22968;DHT22;11650;48.106;-1.696;2023-04-24T02:52:37;9.60;99.90
22968;DHT22;11650;48.106;-1.696;2023-04-24T02:55:03;9.60;99.90
22968;DHT22;11650;48.106;-1.696;2023-04-24T02:57:29;9.60;99.90
22968;DHT22;11650;48.106;-1.696;2023-04-24T02:59:54;9.60;99.90
22968;DHT22;11650;48.106;-1.696;2023-04-24T03:02:20;9.60;99.90
22968;DHT22;11650;48.106;-1.696;2023-04-24T03:04:46;9.60;99.90
22968;DHT22;11650;48.106;-1.696;2023-04-24T03:07:14;9.60;99.90
22968;DHT22;11650;48.106;-1.696;2023-04-24T03:09:42;9.60;99.90
22968;DHT22;11650;48.106;-1.696;2023-04-24T03:12:08;9.60;99.90
22968;DHT22;11650;48.106;-1.696;2023-04-24T03:14:33;9.60;99.90
22968;DHT22;11650;48.106;-1.696;2023-04-24T03:17:00;9.60;99.90
22968;DHT22;11650;48.106;-1.696;2023-04-24T03:19:25;9.60;99.90
22968;DHT22;11650;48.106;-1.696;2023-04-24T03:21:51;9.70;99.90
22968;DHT22;11650;48.106;-1.696;2023-04-24T03:24:17;9.70;99.90
22968;DHT22;11650;48.106;-1.696;2023-04-24T03:26:42;9.70;99.90
22968;DHT22;11650;48.106;-1.696;2023-04-24T03:29:08;9.70;99.90
22968;DHT22;11650;48.106;-1.696;2023-04-24T03:31:33;9.70;99.90
22968;DHT22;11650;48.106;-1.696;2023-04-24T03:33:59;9.80;99.90
22968;DHT22;11650;48.106;-1.696;2023-04-24T03:36:25;9.70;99.90
22968;DHT22;11650;48.106;-1.696;2023-04-24T03:38:51;9.80;99.90
22968;DHT22;11650;48.106;-1.696;2023-04-24T03:41:17;9.70;99.90
22968;DHT22;11650;48.106;-1.696;2023-04-24T03:43:42;9.60;99.90
22968;DHT22;11650;48.106;-1.696;2023-04-24T03:46:08;9.60;99.90
22968;DHT22;11650;48.106;-1.696;2023-04-24T03:48:35;9.60;99.90
22968;DHT22;11650;48.106;-1.696;2023-04-24T03:51:00;9.60;99.90
22968;DHT22;11650;48.106;-1.696;2023-04-24T03:53:26;9.60;99.90
22968;DHT22;11650;48.106;-1.696;2023-04-24T03:55:53;9.60;99.90
22968;DHT22;11650;48.106;-1.696;2023-04-24T03:58:18;9.60;99.90
22968;DHT22;11650;48.106;-1.696;2023-04-24T04:00:44;9.60;99.90
22968;DHT22;11650;48.106;-1.696;2023-04-24T04:03:12;9.60;99.90
22968;DHT22;11650;48.106;-1.696;2023-04-24T04:05:39;9.60;99.90
22968;DHT22;11650;48.106;-1.696;2023-04-24T04:08:04;9.60;99.90
22968;DHT22;11650;48.106;-1.696;2023-04-24T04:10:30;9.50;99.90
22968;DHT22;11650;48.106;-1.696;2023-04-24T04:12:55;9.50;99.90
22968;DHT22;11650;48.106;-1.696;2023-04-24T04:15:21;9.50;99.90
22968;DHT22;11650;48.106;-1.696;2023-04-24T04:17:47;9.50;99.90
22968;DHT22;11650;48.106;-1.696;2023-04-24T04:20:12;9.60;99.90
22968;DHT22;11650;48.106;-1.696;2023-04-24T04:22:38;9.50;99.90
22968;DHT22;11650;48.106;-1.696;2023-04-24T04:25:05;9.50;99.90
22968;DHT22;11650;48.106;-1.696;2023-04-24T04:27:31;9.50;99.90
22968;DHT22;11650;48.106;-1.696;2023-04-24T04:30:01;9.60;99.90
22968;DHT22;11650;48.106;-1.696;2023-04-24T04:32:31;9.50;99.90
22968;DHT22;11650;48.106;-1.696;2023-04-24T04:34:59;9.50;99.90
22968;DHT22;11650;48.106;-1.696;2023-04-24T04:37:29;9.50;99.90
22968;DHT22;11650;48.106;-1.696;2023-04-24T04:39:55;9.50;99.90
22968;DHT22;11650;48.106;-1.696;2023-04-24T04:42:20;9.50;99.90
22968;DHT22;11650;48.106;-1.696;2023-04-24T04:44:46;9.50;99.90
22968;DHT22;11650;48.106;-1.696;2023-04-24T04:47:12;9.50;99.90
22968;DHT22;11650;48.106;-1.696;2023-04-24T04:49:38;9.60;99.90
22968;DHT22;11650;48.106;-1.696;2023-04-24T04:52:04;9.60;99.90
22968;DHT22;11650;48.106;-1.696;2023-04-24T04:54:30;9.50;99.90
22968;DHT22;11650;48.106;-1.696;2023-04-24T04:56:56;9.50;99.90
22968;DHT22;11650;48.106;-1.696;2023-04-24T04:59:22;9.50;99.90
22968;DHT22;11650;48.106;-1.696;2023-04-24T05:01:48;9.50;99.90
22968;DHT22;11650;48.106;-1.696;2023-04-24T05:04:14;9.50;99.90
22968;DHT22;11650;48.106;-1.696;2023-04-24T05:06:39;9.50;99.90
22968;DHT22;11650;48.106;-1.696;2023-04-24T05:09:05;9.40;99.90
22968;DHT22;11650;48.106;-1.696;2023-04-24T05:11:32;9.60;99.90
22968;DHT22;11650;48.106;-1.696;2023-04-24T05:13:58;9.60;99.90
22968;DHT22;11650;48.106;-1.696;2023-04-24T05:16:23;9.50;99.90
22968;DHT22;11650;48.106;-1.696;2023-04-24T05:18:49;9.50;99.90
22968;DHT22;11650;48.106;-1.696;2023-04-24T05:21:15;9.50;99.90
22968;DHT22;11650;48.106;-1.696;2023-04-24T05:23:41;9.40;99.90
22968;DHT22;11650;48.106;-1.696;2023-04-24T05:26:06;9.40;99.90
22968;DHT22;11650;48.106;-1.696;2023-04-24T05:28:32;9.40;99.90
22968;DHT22;11650;48.106;-1.696;2023-04-24T05:30:58;9.40;99.90
22968;DHT22;11650;48.106;-1.696;2023-04-24T05:33:25;9.40;99.90
22968;DHT22;11650;48.106;-1.696;2023-04-24T05:35:50;9.40;99.90
22968;DHT22;11650;48.106;-1.696;2023-04-24T05:38:16;9.40;99.90
22968;DHT22;11650;48.106;-1.696;2023-04-24T05:40:47;9.40;99.90
22968;DHT22;11650;48.106;-1.696;2023-04-24T05:43:13;9.30;99.90
22968;DHT22;11650;48.106;-1.696;2023-04-24T05:45:39;9.30;99.90
22968;DHT22;11650;48.106;-1.696;2023-04-24T05:48:04;9.30;99.90
22968;DHT22;11650;48.106;-1.696;2023-04-24T05:50:31;9.20;99.90
22968;DHT22;11650;48.106;-1.696;2023-04-24T05:52:56;9.20;99.90
22968;DHT22;11650;48.106;-1.696;2023-04-24T05:55:27;9.10;99.90
22968;DHT22;11650;48.106;-1.696;2023-04-24T05:57:52;9.10;99.90
22968;DHT22;11650;48.106;-1.696;2023-04-24T06:00:18;9.00;99.90
22968;DHT22;11650;48.106;-1.696;2023-04-24T06:02:45;9.00;99.90
22968;DHT22;11650;48.106;-1.696;2023-04-24T06:05:11;9.00;99.90
22968;DHT22;11650;48.106;-1.696;2023-04-24T06:07:37;9.00;99.90
22968;DHT22;11650;48.106;-1.696;2023-04-24T06:10:03;8.90;99.90
22968;DHT22;11650;48.106;-1.696;2023-04-24T06:12:29;9.00;99.90
22968;DHT22;11650;48.106;-1.696;2023-04-24T06:14:55;9.10;99.90
22968;DHT22;11650;48.106;-1.696;2023-04-24T06:17:23;9.20;99.90
22968;DHT22;11650;48.106;-1.696;2023-04-24T06:19:48;9.30;99.90
22968;DHT22;11650;48.106;-1.696;2023-04-24T06:22:14;9.20;99.90
22968;DHT22;11650;48.106;-1.696;2023-04-24T06:24:40;9.20;99.90
22968;DHT22;11650;48.106;-1.696;2023-04-24T06:27:06;9.30;99.90
22968;DHT22;11650;48.106;-1.696;2023-04-24T06:29:33;9.30;99.90
22968;DHT22;11650;48.106;-1.696;2023-04-24T06:31:58;9.30;99.90
22968;DHT22;11650;48.106;-1.696;2023-04-24T06:34:24;9.40;99.90
22968;DHT22;11650;48.106;-1.696;2023-04-24T06:36:50;9.60;99.90
22968;DHT22;11650;48.106;-1.696;2023-04-24T06:39:16;9.50;99.90
22968;DHT22;11650;48.106;-1.696;2023-04-24T06:41:41;9.50;99.90
22968;DHT22;11650;48.106;-1.696;2023-04-24T06:44:07;9.70;99.90
22968;DHT22;11650;48.106;-1.696;2023-04-24T06:46:33;9.90;99.90
22968;DHT22;11650;48.106;-1.696;2023-04-24T06:48:58;9.90;99.90
22968;DHT22;11650;48.106;-1.696;2023-04-24T06:51:25;10.20;99.90
22968;DHT22;11650;48.106;-1.696;2023-04-24T06:53:54;10.40;99.90
22968;DHT22;11650;48.106;-1.696;2023-04-24T06:56:21;10.50;99.90
22968;DHT22;11650;48.106;-1.696;2023-04-24T06:58:47;10.60;99.90
22968;DHT22;11650;48.106;-1.696;2023-04-24T07:01:13;10.70;99.90
22968;DHT22;11650;48.106;-1.696;2023-04-24T07:03:39;10.80;99.90
22968;DHT22;11650;48.106;-1.696;2023-04-24T07:06:05;10.80;99.90
22968;DHT22;11650;48.106;-1.696;2023-04-24T07:08:31;10.50;99.90
22968;DHT22;11650;48.106;-1.696;2023-04-24T07:10:59;10.50;99.90
22968;DHT22;11650;48.106;-1.696;2023-04-24T07:13:25;10.50;99.90
22968;DHT22;11650;48.106;-1.696;2023-04-24T07:15:51;10.50;99.90
22968;DHT22;11650;48.106;-1.696;2023-04-24T07:18:20;10.60;99.90
22968;DHT22;11650;48.106;-1.696;2023-04-24T07:20:45;10.70;99.90
22968;DHT22;11650;48.106;-1.696;2023-04-24T07:23:11;10.70;99.90
22968;DHT22;11650;48.106;-1.696;2023-04-24T07:25:37;10.80;99.90
22968;DHT22;11650;48.106;-1.696;2023-04-24T07:28:03;10.90;99.90
22968;DHT22;11650;48.106;-1.696;2023-04-24T07:30:30;11.10;99.90
22968;DHT22;11650;48.106;-1.696;2023-04-24T07:32:56;11.00;99.90
22968;DHT22;11650;48.106;-1.696;2023-04-24T07:35:21;11.20;99.90
22968;DHT22;11650;48.106;-1.696;2023-04-24T07:37:47;11.20;99.90
22968;DHT22;11650;48.106;-1.696;2023-04-24T07:40:13;11.40;99.90
22968;DHT22;11650;48.106;-1.696;2023-04-24T07:42:39;11.40;99.90
22968;DHT22;11650;48.106;-1.696;2023-04-24T07:45:05;11.30;99.90
22968;DHT22;11650;48.106;-1.696;2023-04-24T07:47:32;11.30;99.90
22968;DHT22;11650;48.106;-1.696;2023-04-24T07:49:58;11.50;99.90
22968;DHT22;11650;48.106;-1.696;2023-04-24T07:52:24;11.50;99.90
22968;DHT22;11650;48.106;-1.696;2023-04-24T07:54:50;11.60;99.90
22968;DHT22;11650;48.106;-1.696;2023-04-24T07:57:18;11.50;99.90
22968;DHT22;11650;48.106;-1.696;2023-04-24T07:59:44;11.20;99.90
22968;DHT22;11650;48.106;-1.696;2023-04-24T08:02:09;11.50;99.90
22968;DHT22;11650;48.106;-1.696;2023-04-24T08:04:35;11.60;99.90
22968;DHT22;11650;48.106;-1.696;2023-04-24T08:07:01;11.80;99.90
22968;DHT22;11650;48.106;-1.696;2023-04-24T08:09:26;11.90;99.90
22968;DHT22;11650;48.106;-1.696;2023-04-24T08:11:52;11.90;99.90
22968;DHT22;11650;48.106;-1.696;2023-04-24T08:14:18;11.90;99.90
22968;DHT22;11650;48.106;-1.696;2023-04-24T08:16:44;11.80;99.90
22968;DHT22;11650;48.106;-1.696;2023-04-24T08:19:10;12.10;99.90
22968;DHT22;11650;48.106;-1.696;2023-04-24T08:21:35;12.20;99.90
22968;DHT22;11650;48.106;-1.696;2023-04-24T08:24:01;12.10;99.90
22968;DHT22;11650;48.106;-1.696;2023-04-24T08:26:30;12.00;99.90
22968;DHT22;11650;48.106;-1.696;2023-04-24T08:28:56;12.10;99.90
22968;DHT22;11650;48.106;-1.696;2023-04-24T08:31:21;12.10;99.90
22968;DHT22;11650;48.106;-1.696;2023-04-24T08:33:48;12.10;99.90
22968;DHT22;11650;48.106;-1.696;2023-04-24T08:36:13;12.30;99.90
22968;DHT22;11650;48.106;-1.696;2023-04-24T08:38:39;12.60;99.90
22968;DHT22;11650;48.106;-1.696;2023-04-24T08:41:06;12.70;99.90
22968;DHT22;11650;48.106;-1.696;2023-04-24T08:43:33;12.70;99.90
22968;DHT22;11650;48.106;-1.696;2023-04-24T08:46:03;12.50;99.90
22968;DHT22;11650;48.106;-1.696;2023-04-24T08:48:29;12.80;99.90
22968;DHT22;11650;48.106;-1.696;2023-04-24T08:50:56;12.60;99.90
22968;DHT22;11650;48.106;-1.696;2023-04-24T08:53:22;12.90;99.90
22968;DHT22;11650;48.106;-1.696;2023-04-24T08:55:49;13.10;99.90
22968;DHT22;11650;48.106;-1.696;2023-04-24T08:58:17;13.00;99.90
22968;DHT22;11650;48.106;-1.696;2023-04-24T09:00:43;13.10;99.90
22968;DHT22;11650;48.106;-1.696;2023-04-24T09:03:13;13.50;99.90
22968;DHT22;11650;48.106;-1.696;2023-04-24T09:05:39;13.40;99.90
22968;DHT22;11650;48.106;-1.696;2023-04-24T09:08:10;13.30;99.90
22968;DHT22;11650;48.106;-1.696;2023-04-24T09:10:39;13.10;99.90
22968;DHT22;11650;48.106;-1.696;2023-04-24T09:13:05;13.30;99.90
22968;DHT22;11650;48.106;-1.696;2023-04-24T09:15:31;13.30;99.90
22968;DHT22;11650;48.106;-1.696;2023-04-24T09:17:57;13.50;99.90
22968;DHT22;11650;48.106;-1.696;2023-04-24T09:20:23;13.40;99.90
22968;DHT22;11650;48.106;-1.696;2023-04-24T09:22:54;13.40;99.90
22968;DHT22;11650;48.106;-1.696;2023-04-24T09:25:20;13.30;99.90
22968;DHT22;11650;48.106;-1.696;2023-04-24T09:27:47;13.00;99.90
22968;DHT22;11650;48.106;-1.696;2023-04-24T09:30:14;12.90;99.90
22968;DHT22;11650;48.106;-1.696;2023-04-24T09:32:46;12.90;99.90
22968;DHT22;11650;48.106;-1.696;2023-04-24T09:35:13;12.90;99.90
22968;DHT22;11650;48.106;-1.696;2023-04-24T09:37:41;13.00;99.90
22968;DHT22;11650;48.106;-1.696;2023-04-24T09:40:28;12.90;99.90
22968;DHT22;11650;48.106;-1.696;2023-04-24T09:42:55;13.10;99.90
22968;DHT22;11650;48.106;-1.696;2023-04-24T09:45:56;13.20;99.90
22968;DHT22;11650;48.106;-1.696;2023-04-24T09:48:14;13.20;99.90
22968;DHT22;11650;48.106;-1.696;2023-04-24T09:50:46;13.30;99.90
22968;DHT22;11650;48.106;-1.696;2023-04-24T09:53:12;13.60;99.90
22968;DHT22;11650;48.106;-1.696;2023-04-24T09:55:45;13.70;99.90
22968;DHT22;11650;48.106;-1.696;2023-04-24T09:58:11;13.80;99.90
22968;DHT22;11650;48.106;-1.696;2023-04-24T10:00:37;13.70;99.90
22968;DHT22;11650;48.106;-1.696;2023-04-24T10:03:04;13.70;99.90
22968;DHT22;11650;48.106;-1.696;2023-04-24T10:08:02;14.10;99.90
22968;DHT22;11650;48.106;-1.696;2023-04-24T10:10:29;14.30;99.90
22968;DHT22;11650;48.106;-1.696;2023-04-24T10:12:55;14.50;99.90
22968;DHT22;11650;48.106;-1.696;2023-04-24T10:15:21;14.80;99.90
22968;DHT22;11650;48.106;-1.696;2023-04-24T10:17:49;14.60;99.90
22968;DHT22;11650;48.106;-1.696;2023-04-24T10:20:23;14.50;99.90
22968;DHT22;11650;48.106;-1.696;2023-04-24T10:22:51;14.30;99.90
22968;DHT22;11650;48.106;-1.696;2023-04-24T10:25:21;14.20;99.90
22968;DHT22;11650;48.106;-1.696;2023-04-24T10:27:48;14.10;99.90
22968;DHT22;11650;48.106;-1.696;2023-04-24T10:30:14;14.10;99.90
22968;DHT22;11650;48.106;-1.696;2023-04-24T10:32:40;14.10;99.90
22968;DHT22;11650;48.106;-1.696;2023-04-24T10:35:07;13.90;99.90
22968;DHT22;11650;48.106;-1.696;2023-04-24T10:38:03;13.90;99.90
22968;DHT22;11650;48.106;-1.696;2023-04-24T10:40:33;14.20;99.90
22968;DHT22;11650;48.106;-1.696;2023-04-24T10:43:02;14.10;99.90
22968;DHT22;11650;48.106;-1.696;2023-04-24T10:45:28;14.50;99.90
22968;DHT22;11650;48.106;-1.696;2023-04-24T10:47:59;15.00;99.90
22968;DHT22;11650;48.106;-1.696;2023-04-24T10:50:27;14.90;99.90
22968;DHT22;11650;48.106;-1.696;2023-04-24T10:52:55;14.70;99.90
22968;DHT22;11650;48.106;-1.696;2023-04-24T10:55:44;14.60;99.90
22968;DHT22;11650;48.106;-1.696;2023-04-24T10:58:10;14.70;99.90
22968;DHT22;11650;48.106;-1.696;2023-04-24T11:00:38;14.80;99.90
22968;DHT22;11650;48.106;-1.696;2023-04-24T11:05:52;14.70;99.90
22968;DHT22;11650;48.106;-1.696;2023-04-24T11:08:26;14.50;99.90
22968;DHT22;11650;48.106;-1.696;2023-04-24T11:11:06;14.50;99.90
22968;DHT22;11650;48.106;-1.696;2023-04-24T11:14:08;14.60;99.90
22968;DHT22;11650;48.106;-1.696;2023-04-24T11:16:53;15.00;99.90
22968;DHT22;11650;48.106;-1.696;2023-04-24T11:19:26;15.20;99.90
22968;DHT22;11650;48.106;-1.696;2023-04-24T11:22:05;14.90;99.90
22968;DHT22;11650;48.106;-1.696;2023-04-24T11:27:18;14.40;99.90
22968;DHT22;11650;48.106;-1.696;2023-04-24T11:29:49;14.20;99.90
22968;DHT22;11650;48.106;-1.696;2023-04-24T11:32:28;14.40;99.90
22968;DHT22;11650;48.106;-1.696;2023-04-24T11:37:23;14.70;99.90
22968;DHT22;11650;48.106;-1.696;2023-04-24T11:39:58;15.10;99.90
22968;DHT22;11650;48.106;-1.696;2023-04-24T11:42:24;15.70;99.90
22968;DHT22;11650;48.106;-1.696;2023-04-24T11:44:53;16.00;99.90
22968;DHT22;11650;48.106;-1.696;2023-04-24T11:47:19;15.90;99.90
22968;DHT22;11650;48.106;-1.696;2023-04-24T11:49:46;16.10;99.90
22968;DHT22;11650;48.106;-1.696;2023-04-24T11:52:15;16.00;99.90
22968;DHT22;11650;48.106;-1.696;2023-04-24T11:54:50;15.50;99.90
22968;DHT22;11650;48.106;-1.696;2023-04-24T11:57:16;15.10;99.90
22968;DHT22;11650;48.106;-1.696;2023-04-24T11:59:42;14.80;99.90
22968;DHT22;11650;48.106;-1.696;2023-04-24T12:02:08;14.50;99.90
22968;DHT22;11650;48.106;-1.696;2023-04-24T12:04:40;14.60;99.90
22968;DHT22;11650;48.106;-1.696;2023-04-24T12:07:06;14.70;99.90
22968;DHT22;11650;48.106;-1.696;2023-04-24T12:10:19;14.80;99.90
22968;DHT22;11650;48.106;-1.696;2023-04-24T12:12:34;15.10;99.90
22968;DHT22;11650;48.106;-1.696;2023-04-24T12:15:06;15.70;99.90
22968;DHT22;11650;48.106;-1.696;2023-04-24T12:17:33;16.50;99.90
22968;DHT22;11650;48.106;-1.696;2023-04-24T12:20:00;17.10;99.90
22968;DHT22;11650;48.106;-1.696;2023-04-24T12:22:27;16.60;99.90
22968;DHT22;11650;48.106;-1.696;2023-04-24T12:25:11;16.50;99.90
22968;DHT22;11650;48.106;-1.696;2023-04-24T12:27:37;16.40;99.90
22968;DHT22;11650;48.106;-1.696;2023-04-24T12:30:04;16.40;99.90
22968;DHT22;11650;48.106;-1.696;2023-04-24T12:32:31;16.60;99.90
22968;DHT22;11650;48.106;-1.696;2023-04-24T12:34:57;16.70;99.90
22968;DHT22;11650;48.106;-1.696;2023-04-24T12:37:26;16.40;99.90
22968;DHT22;11650;48.106;-1.696;2023-04-24T12:40:07;16.10;99.90
22968;DHT22;11650;48.106;-1.696;2023-04-24T12:42:33;16.20;99.90
22968;DHT22;11650;48.106;-1.696;2023-04-24T12:45:04;16.00;99.90
22968;DHT22;11650;48.106;-1.696;2023-04-24T12:47:32;15.70;99.90
22968;DHT22;11650;48.106;-1.696;2023-04-24T12:49:58;15.90;99.90
22968;DHT22;11650;48.106;-1.696;2023-04-24T12:52:25;16.10;99.90
22968;DHT22;11650;48.106;-1.696;2023-04-24T12:54:56;16.20;99.90
22968;DHT22;11650;48.106;-1.696;2023-04-24T12:57:23;16.30;99.90
22968;DHT22;11650;48.106;-1.696;2023-04-24T12:59:49;16.50;99.90
22968;DHT22;11650;48.106;-1.696;2023-04-24T13:02:16;16.50;99.90
22968;DHT22;11650;48.106;-1.696;2023-04-24T13:04:46;16.80;99.90
22968;DHT22;11650;48.106;-1.696;2023-04-24T13:07:15;16.90;99.90
22968;DHT22;11650;48.106;-1.696;2023-04-24T13:09:42;17.30;99.90
22968;DHT22;11650;48.106;-1.696;2023-04-24T13:12:08;17.80;99.90
22968;DHT22;11650;48.106;-1.696;2023-04-24T13:14:34;17.70;99.90
22968;DHT22;11650;48.106;-1.696;2023-04-24T13:17:00;18.00;99.90
22968;DHT22;11650;48.106;-1.696;2023-04-24T13:19:26;18.10;99.90
22968;DHT22;11650;48.106;-1.696;2023-04-24T13:21:54;18.30;99.90
22968;DHT22;11650;48.106;-1.696;2023-04-24T13:24:20;18.90;99.90
22968;DHT22;11650;48.106;-1.696;2023-04-24T13:26:46;18.10;99.90
22968;DHT22;11650;48.106;-1.696;2023-04-24T13:29:11;18.60;99.90
22968;DHT22;11650;48.106;-1.696;2023-04-24T13:31:37;18.00;99.90
22968;DHT22;11650;48.106;-1.696;2023-04-24T13:34:03;17.20;99.90
22968;DHT22;11650;48.106;-1.696;2023-04-24T13:36:29;16.90;99.90
22968;DHT22;11650;48.106;-1.696;2023-04-24T13:38:55;16.60;99.90
22968;DHT22;11650;48.106;-1.696;2023-04-24T13:41:21;16.40;99.90
22968;DHT22;11650;48.106;-1.696;2023-04-24T13:43:47;16.90;99.90
22968;DHT22;11650;48.106;-1.696;2023-04-24T13:46:13;17.50;99.90
22968;DHT22;11650;48.106;-1.696;2023-04-24T13:48:38;17.40;99.90
22968;DHT22;11650;48.106;-1.696;2023-04-24T13:51:04;17.30;99.90
22968;DHT22;11650;48.106;-1.696;2023-04-24T13:53:29;17.00;99.90
22968;DHT22;11650;48.106;-1.696;2023-04-24T13:55:55;17.50;99.90
22968;DHT22;11650;48.106;-1.696;2023-04-24T13:58:21;17.20;99.90
22968;DHT22;11650;48.106;-1.696;2023-04-24T14:00:46;17.00;99.90
22968;DHT22;11650;48.106;-1.696;2023-04-24T14:03:12;16.60;99.90
22968;DHT22;11650;48.106;-1.696;2023-04-24T14:05:38;16.60;99.90
22968;DHT22;11650;48.106;-1.696;2023-04-24T14:08:04;16.30;99.90
22968;DHT22;11650;48.106;-1.696;2023-04-24T14:10:30;16.30;99.90
22968;DHT22;11650;48.106;-1.696;2023-04-24T14:12:55;16.30;99.90
22968;DHT22;11650;48.106;-1.696;2023-04-24T14:15:21;16.00;99.90
22968;DHT22;11650;48.106;-1.696;2023-04-24T14:17:48;15.90;99.90
22968;DHT22;11650;48.106;-1.696;2023-04-24T14:20:14;15.80;99.90
22968;DHT22;11650;48.106;-1.696;2023-04-24T14:22:39;15.60;99.90
22968;DHT22;11650;48.106;-1.696;2023-04-24T14:25:06;15.30;99.90
22968;DHT22;11650;48.106;-1.696;2023-04-24T14:27:32;14.90;99.90
22968;DHT22;11650;48.106;-1.696;2023-04-24T14:29:57;14.80;99.90
22968;DHT22;11650;48.106;-1.696;2023-04-24T14:32:23;14.80;99.90
22968;DHT22;11650;48.106;-1.696;2023-04-24T14:34:49;14.50;99.90
22968;DHT22;11650;48.106;-1.696;2023-04-24T14:37:15;14.60;99.90
22968;DHT22;11650;48.106;-1.696;2023-04-24T14:39:40;15.80;99.90
22968;DHT22;11650;48.106;-1.696;2023-04-24T14:42:06;16.50;99.90
22968;DHT22;11650;48.106;-1.696;2023-04-24T14:44:32;15.90;99.90
22968;DHT22;11650;48.106;-1.696;2023-04-24T14:46:58;15.30;99.90
22968;DHT22;11650;48.106;-1.696;2023-04-24T14:49:24;14.90;99.90
22968;DHT22;11650;48.106;-1.696;2023-04-24T14:51:50;14.70;99.90
22968;DHT22;11650;48.106;-1.696;2023-04-24T14:54:15;15.00;99.90
22968;DHT22;11650;48.106;-1.696;2023-04-24T14:56:41;15.00;99.90
22968;DHT22;11650;48.106;-1.696;2023-04-24T14:59:09;15.00;99.90
22968;DHT22;11650;48.106;-1.696;2023-04-24T15:01:34;14.90;99.90
22968;DHT22;11650;48.106;-1.696;2023-04-24T15:04:00;14.50;99.90
22968;DHT22;11650;48.106;-1.696;2023-04-24T15:06:26;14.20;99.90
22968;DHT22;11650;48.106;-1.696;2023-04-24T15:08:51;13.70;99.90
22968;DHT22;11650;48.106;-1.696;2023-04-24T15:11:17;13.40;99.90
22968;DHT22;11650;48.106;-1.696;2023-04-24T15:13:43;13.20;99.90
22968;DHT22;11650;48.106;-1.696;2023-04-24T15:16:10;13.10;99.90
22968;DHT22;11650;48.106;-1.696;2023-04-24T15:18:36;13.40;99.90
22968;DHT22;11650;48.106;-1.696;2023-04-24T15:21:02;13.90;99.90
22968;DHT22;11650;48.106;-1.696;2023-04-24T15:23:27;14.50;99.90
22968;DHT22;11650;48.106;-1.696;2023-04-24T15:25:53;14.90;99.90
22968;DHT22;11650;48.106;-1.696;2023-04-24T15:28:19;15.40;99.90
22968;DHT22;11650;48.106;-1.696;2023-04-24T15:30:47;17.60;99.90
22968;DHT22;11650;48.106;-1.696;2023-04-24T15:33:13;19.60;99.90